Altair, TX (77412)

7:46 PM CDT on May 22, 2015 (GMT -0500)
Winslow Hills, Alleyton | | Change Station
CLOSE
Current Station
Personal Weather Station
Location: Alleyton, TX
Elevation: 256 ft
Nearby Weather Stations

Elev 256 ft 29.71 °N, 96.39 °W | Updated 12 seconds ago

Overcast
Overcast
77.0 °F
Feels Like 78 °F
N
1.3
Wind Variable Wind from ESE
Gusts 2.5 mph

Today
High -- | Low -- °F
--% Chance of Precip.
Yesterday
High -- | Low -- °F
Precip. -- in
6:29 AM 8:16 PM
Waxing Crescent, 25% visible
Pressure 30.04 in
Visibility 10.0 miles
Clouds Mostly Cloudy 2000 ft
Mostly Cloudy 2500 ft
Overcast 4300 ft
Heat Index 78 °F
Dew Point 74 °F
Humidity 90%
Rainfall 0.00 in
Snow Depth Not available.
UV 0.0 out of 12
Pollen 3.80 out of 12
Air Quality Not available.
Flu Activity Sporadic
METAR K3T5 230035Z AUTO 14008KT 10SM BKN020 BKN025 OVC043 26/23 A3004 RMK AO2 LTG DSNT N T02610230

More Conditions Fewer Conditions

Pressure 30.04 in
Visibility 10.0 miles
Clouds Mostly Cloudy 2000 ft
Mostly Cloudy 2500 ft
Overcast 4300 ft
Heat Index 78 °F
Dew Point 74 °F
Humidity 90%
Rainfall 0.00 in
Snow Depth Not available.
UV 0.0 out of 12
Pollen 3.80 out of 12
Air Quality Not available.
Flu Activity Sporadic
METAR K3T5 230035Z AUTO 14008KT 10SM BKN020 BKN025 OVC043 26/23 A3004 RMK AO2 LTG DSNT N T02610230

More Conditions Fewer Conditions

10-Day Weather Forecast

Almanac

Astronomy

May. 22, 2015 Rise Set
Actual Time
Civil Twilight
Nautical Twilight
Astronomical Twilight
Moon
Length of Visible Light
Length of Day
Tomorrow will be .
, % of the Moon is Illuminated

Today's Extremes

State Highs State Lows

Community

WunderPhotos

Upload Photos

1,823,350 photos uploaded!

WunderBlogs® & News

Nearby

Air Quality

  Air Quality AQ Index Pollutant
Not available.

Snow Depth

Station Depth Elevation

Earthquake Activity

City Distance Mag. Time & Date
Minimum magnitude displayed is 2.5.

Coastal Water Temperatures

Place Temperature

Stations

Nearby Weather Stations

Station Location Temp. Windchill Dew Point Humidity Wind Precip. Elev Updated Type